Overview Statistics Trail Chart Weather Telemetry Raw packets
 

This is the latest recevied weather packets stored in our database for station/object 9W2EXL-13. If no packets are shown the sender has not sent any weather packets the latest 10 day(s).

<< 5 6 7 8 9 10 11 >>
Time Temp. Humidity Pressure Rain* Wind** Luminosity Snow
1788359803 31.67° C 91% 1012.7 hPa - - - -
1788356203 31.67° C 90% 1012.2 hPa - - - -
1788350802 32.78° C 84% 1010.7 hPa - - - -
1788347202 33.89° C 78% 1010.2 hPa - - - -
1788345401 34.44° C 76% 1010.3 hPa - - - -
1788344501 35° C 76% 1010 hPa - - - -
1788343601 35° C 81% 1009.7 hPa - - - -
1788339101 33.89° C 83% 1008.7 hPa - - - -
1788335500 35.56° C 75% 1008.7 hPa - - - -
1788333700 36.11° C 70% 1008.8 hPa - - - -
1788331000 36.11° C 67% 1009.3 hPa - - - -
1788323799 35° C 71% 1011.9 hPa - - - -
1788322899 35° C 72% 1012.1 hPa - - - -
1788321099 35° C 73% 1012.4 hPa - - - -
1788320199 34.44° C 75% 1012.6 hPa - - - -
1788319299 33.89° C 72% 1012.8 hPa - - - -
1788318399 33.33° C 77% 1012.9 hPa - - - -
1788317498 33.33° C 79% 1013 hPa - - - -
1788316598 32.22° C 86% 1013.1 hPa - - - -
1788314022 31.11° C 100% 1013 hPa - - - -
1788313909 31.11° C 100% 1013 hPa - - - -
1788312098 31.11° C 100% 1012.5 hPa - - - -
1788311198 30.56° C 100% 1012.2 hPa - - - -
1788309398 30.56° C 100% 1012 hPa - - - -
1788308498 30° C 100% 1011.8 hPa - - - -

* Rain since midnight (hover to see other rain measurements)
** Current wind speed in m/s (hover to see current wind gust speed)